createdAt,value
2022-11-08T00:00:09.005Z,87.97
2022-11-08T00:02:35.721Z,88.12
2022-11-08T00:05:21.034Z,87.93
2022-11-08T00:08:05.929Z,88.11
2022-11-08T00:10:51.100Z,88.23
2022-11-08T00:13:36.436Z,88.29
2022-11-08T00:16:02.988Z,88.36
2022-11-08T00:18:29.476Z,87.92
2022-11-08T00:20:55.990Z,88.16
2022-11-08T00:23:22.502Z,88.10
2022-11-08T00:25:53.850Z,87.99
2022-11-08T00:28:20.825Z,88.36
2022-11-08T00:30:47.351Z,88.27
2022-11-08T00:33:13.852Z,88.13
2022-11-08T00:35:40.340Z,88.17
2022-11-08T00:38:07.217Z,88.30
2022-11-08T00:40:34.673Z,88.49
2022-11-08T00:43:01.178Z,88.30
2022-11-08T00:45:27.726Z,88.32
2022-11-08T00:47:54.346Z,88.37
2022-11-08T00:50:20.872Z,88.29
2022-11-08T00:52:47.376Z,88.64
2022-11-08T00:55:13.875Z,88.54
2022-11-08T00:57:58.605Z,88.60
2022-11-08T01:00:27.243Z,88.36
2022-11-08T01:03:13.801Z,88.67
2022-11-08T01:05:40.644Z,88.50
2022-11-08T01:08:07.144Z,88.73
2022-11-08T01:10:33.720Z,88.60
2022-11-08T01:13:00.275Z,88.78
2022-11-08T01:15:26.940Z,88.84
2022-11-08T01:17:53.626Z,88.92
2022-11-08T01:20:20.317Z,88.88
2022-11-08T01:22:46.824Z,89.01
2022-11-08T01:25:13.326Z,88.96
2022-11-08T01:27:39.855Z,89.28
2022-11-08T01:30:07.066Z,89.07
2022-11-08T01:32:33.652Z,88.93
2022-11-08T01:35:00.180Z,88.74
2022-11-08T01:37:26.706Z,88.80
2022-11-08T01:39:53.217Z,88.93
2022-11-08T01:42:31.133Z,88.95
2022-11-08T01:45:01.521Z,88.93
2022-11-08T01:47:28.070Z,89.01
2022-11-08T01:50:05.791Z,88.95
2022-11-08T01:52:36.470Z,88.78
2022-11-08T01:55:30.861Z,88.70
2022-11-08T01:58:05.180Z,88.82
2022-11-08T02:00:31.774Z,88.81
2022-11-08T02:03:00.946Z,88.98
2022-11-08T02:05:30.603Z,88.88
2022-11-08T02:08:18.548Z,89.27
2022-11-08T02:10:48.826Z,89.09
2022-11-08T02:13:19.746Z,89.14
2022-11-08T02:15:46.831Z,89.36
2022-11-08T02:18:14.966Z,89.72
2022-11-08T02:20:58.085Z,89.46
2022-11-08T02:23:32.529Z,89.56
2022-11-08T02:25:59.108Z,89.61
2022-11-08T02:28:25.612Z,89.59
2022-11-08T02:30:52.177Z,89.57
2022-11-08T02:33:21.840Z,89.72
2022-11-08T02:35:50.471Z,89.59
2022-11-08T02:38:18.180Z,89.56
2022-11-08T02:40:47.003Z,89.47
2022-11-08T02:43:13.573Z,89.86
2022-11-08T02:45:40.567Z,90.01
2022-11-08T02:48:07.488Z,90.00
2022-11-08T02:50:34.439Z,90.06
2022-11-08T02:53:01.027Z,90.04
2022-11-08T02:55:29.131Z,89.66
2022-11-08T02:57:56.225Z,89.91
2022-11-08T03:00:22.807Z,89.93
2022-11-08T03:02:55.827Z,90.01
2022-11-08T03:05:23.561Z,90.02
2022-11-08T03:07:50.754Z,90.36
2022-11-08T03:10:18.303Z,90.40
2022-11-08T03:12:44.896Z,90.36
2022-11-08T03:15:12.768Z,90.27
2022-11-08T03:17:39.653Z,90.56
2022-11-08T03:20:07.981Z,90.49
2022-11-08T03:22:34.475Z,90.46
2022-11-08T03:25:01.002Z,90.42
2022-11-08T03:27:27.539Z,90.72
2022-11-08T03:29:54.033Z,90.46
2022-11-08T03:32:20.611Z,90.74
2022-11-08T03:34:47.204Z,90.72
2022-11-08T03:37:13.696Z,91.07
2022-11-08T03:39:40.199Z,90.39
2022-11-08T03:42:08.037Z,90.51
2022-11-08T03:44:34.693Z,90.84
2022-11-08T03:47:01.868Z,90.55
2022-11-08T03:49:28.433Z,90.73
2022-11-08T03:51:55.004Z,90.54
2022-11-08T03:54:21.569Z,90.83
2022-11-08T03:56:48.143Z,90.87
2022-11-08T03:59:14.799Z,90.81
2022-11-08T04:01:41.508Z,90.81
2022-11-08T04:04:08.458Z,90.75
2022-11-08T04:06:35.148Z,90.93
2022-11-08T04:09:01.752Z,90.67
2022-11-08T04:11:46.884Z,90.87
2022-11-08T04:14:31.699Z,90.44
2022-11-08T04:16:58.256Z,90.24
2022-11-08T04:19:43.382Z,90.35
2022-11-08T04:22:11.662Z,90.19
2022-11-08T04:24:38.196Z,90.19
2022-11-08T04:27:04.692Z,90.15
2022-11-08T04:29:31.293Z,90.45
2022-11-08T04:31:57.826Z,90.44
2022-11-08T04:34:24.335Z,90.52
2022-11-08T04:36:50.852Z,90.65
2022-11-08T04:39:17.465Z,90.33
2022-11-08T04:41:44.033Z,90.53
2022-11-08T04:44:11.746Z,90.21
2022-11-08T04:46:38.278Z,90.21
2022-11-08T04:49:04.817Z,90.16
2022-11-08T04:51:33.365Z,90.16
2022-11-08T04:54:01.282Z,90.35
2022-11-08T04:56:30.219Z,89.98
2022-11-08T04:58:59.382Z,90.26
2022-11-08T05:01:28.924Z,90.05
2022-11-08T05:03:56.176Z,90.08
2022-11-08T05:06:25.625Z,90.21
2022-11-08T05:08:54.411Z,90.31
2022-11-08T05:11:22.863Z,90.25
2022-11-08T05:13:51.109Z,90.24
2022-11-08T05:16:26.375Z,90.09
2022-11-08T05:18:53.411Z,90.41
2022-11-08T05:21:40.081Z,90.04
2022-11-08T05:24:08.801Z,90.04
2022-11-08T05:26:37.722Z,90.14
2022-11-08T05:29:04.843Z,89.76
2022-11-08T05:31:32.054Z,90.02
2022-11-08T05:34:00.143Z,89.88
2022-11-08T05:36:27.804Z,89.74
2022-11-08T05:38:54.547Z,89.69
2022-11-08T05:41:22.919Z,89.49
2022-11-08T05:43:51.367Z,90.19
2022-11-08T05:46:19.308Z,89.69
2022-11-08T05:48:47.032Z,89.68
2022-11-08T05:51:15.424Z,89.83
2022-11-08T05:53:42.664Z,89.54
2022-11-08T05:56:09.232Z,89.83
2022-11-08T05:58:36.934Z,89.37
2022-11-08T06:01:06.342Z,91.18
2022-11-08T06:03:33.484Z,92.37
2022-11-08T06:06:09.450Z,92.15
2022-11-08T06:08:36.358Z,90.38
2022-11-08T06:11:05.132Z,89.01
2022-11-08T06:13:33.131Z,87.83
2022-11-08T06:16:04.437Z,85.39
2022-11-08T06:18:31.763Z,84.10
2022-11-08T06:21:03.273Z,83.99
2022-11-08T06:23:30.056Z,84.09
2022-11-08T06:25:56.562Z,84.66
2022-11-08T06:28:23.829Z,85.22
2022-11-08T06:30:50.906Z,86.28
2022-11-08T06:33:18.047Z,85.42
2022-11-08T06:35:44.842Z,84.79
2022-11-08T06:38:11.586Z,85.32
2022-11-08T06:40:39.344Z,85.24
2022-11-08T06:43:06.386Z,85.81
2022-11-08T06:45:33.222Z,85.19
2022-11-08T06:48:01.653Z,85.43
2022-11-08T06:50:29.927Z,85.76
2022-11-08T06:53:07.623Z,86.08
2022-11-08T06:55:34.974Z,85.24
2022-11-08T06:58:02.174Z,84.91
2022-11-08T07:00:28.793Z,84.33
2022-11-08T07:02:57.563Z,82.67
2022-11-08T07:05:25.504Z,81.35
2022-11-08T07:07:52.555Z,81.57
2022-11-08T07:10:21.407Z,81.49
2022-11-08T07:12:48.716Z,81.93
2022-11-08T07:15:15.539Z,82.34
2022-11-08T07:17:42.192Z,82.76
2022-11-08T07:20:09.425Z,82.83
2022-11-08T07:22:35.916Z,83.33
2022-11-08T07:25:02.508Z,83.40
2022-11-08T07:27:29.118Z,83.62
2022-11-08T07:29:55.694Z,83.53
2022-11-08T07:32:22.225Z,83.85
2022-11-08T07:34:48.778Z,84.09
2022-11-08T07:37:15.300Z,84.17
2022-11-08T07:39:41.804Z,84.66
2022-11-08T07:42:08.391Z,84.33
2022-11-08T07:44:34.928Z,84.68
2022-11-08T07:47:01.517Z,84.66
2022-11-08T07:49:28.060Z,84.89
2022-11-08T07:51:54.593Z,84.93
2022-11-08T07:54:21.077Z,84.79
2022-11-08T07:56:47.582Z,84.78
2022-11-08T07:59:14.130Z,84.46
2022-11-08T08:01:40.731Z,84.71
2022-11-08T08:04:07.396Z,84.73
2022-11-08T08:06:33.991Z,84.79
2022-11-08T08:09:01.013Z,84.90
2022-11-08T08:11:33.328Z,85.17
2022-11-08T08:14:00.257Z,85.55
2022-11-08T08:16:26.826Z,85.40
2022-11-08T08:18:56.340Z,85.24
2022-11-08T08:21:23.377Z,85.07
2022-11-08T08:23:49.921Z,85.17
2022-11-08T08:26:16.472Z,84.91
2022-11-08T08:28:43.038Z,84.91
2022-11-08T08:31:09.848Z,84.69
2022-11-08T08:33:37.821Z,84.57
2022-11-08T08:36:05.247Z,84.38
2022-11-08T08:38:34.251Z,84.09
2022-11-08T08:41:02.345Z,83.58
2022-11-08T08:43:32.356Z,83.54
2022-11-08T08:46:03.776Z,82.59
2022-11-08T08:48:30.404Z,82.51
2022-11-08T08:50:57.326Z,81.81
2022-11-08T08:53:24.545Z,81.37
2022-11-08T08:55:53.948Z,80.66
2022-11-08T08:58:21.619Z,80.56
2022-11-08T09:03:36.211Z,80.09
2022-11-08T09:06:03.817Z,80.07
2022-11-08T09:08:31.002Z,79.82
2022-11-08T09:10:59.521Z,80.23
2022-11-08T09:13:27.940Z,79.92
2022-11-08T09:15:55.191Z,79.59
2022-11-08T09:18:22.099Z,79.71
2022-11-08T09:20:48.911Z,80.07
2022-11-08T09:23:17.616Z,79.52
2022-11-08T09:25:44.612Z,79.49
2022-11-08T09:28:11.204Z,79.84
2022-11-08T09:30:37.719Z,79.10
2022-11-08T09:33:05.349Z,79.13
2022-11-08T09:35:31.927Z,78.37
2022-11-08T09:37:58.821Z,78.31
2022-11-08T09:40:38.554Z,77.80
2022-11-08T09:43:34.415Z,77.97
2022-11-08T09:46:01.154Z,77.12
2022-11-08T09:48:41.334Z,76.56
2022-11-08T09:51:15.341Z,77.17
2022-11-08T09:53:55.888Z,75.97
2022-11-08T09:56:29.045Z,75.67
2022-11-08T09:59:02.383Z,75.91
2022-11-08T10:01:36.591Z,75.20
2022-11-08T10:04:12.580Z,74.63
2022-11-08T10:06:44.937Z,74.86
2022-11-08T10:09:44.720Z,74.46
2022-11-08T10:12:19.778Z,74.01
2022-11-08T10:15:10.749Z,73.38
2022-11-08T10:18:04.072Z,72.15
2022-11-08T10:20:53.830Z,71.39
2022-11-08T10:23:46.464Z,70.29
2022-11-08T10:26:26.672Z,69.86
2022-11-08T10:28:58.951Z,68.94
2022-11-08T10:31:41.036Z,68.77
2022-11-08T10:34:20.481Z,68.44
2022-11-08T10:36:54.682Z,67.28
2022-11-08T10:39:28.256Z,66.79
2022-11-08T10:42:04.524Z,66.87
2022-11-08T10:44:31.157Z,66.68
2022-11-08T10:47:00.666Z,66.09
2022-11-08T10:49:31.010Z,64.67
2022-11-08T10:52:13.534Z,65.15
2022-11-08T10:54:51.071Z,65.37
2022-11-08T10:57:33.096Z,65.79
2022-11-08T11:00:21.330Z,65.38
2022-11-08T11:03:16.594Z,64.40
2022-11-08T11:06:05.898Z,62.54
2022-11-08T11:08:33.663Z,61.88
2022-11-08T11:11:24.164Z,60.97
2022-11-08T11:14:22.776Z,60.05
2022-11-08T11:16:56.074Z,59.60
2022-11-08T11:19:24.548Z,59.34
2022-11-08T11:22:01.495Z,58.49
2022-11-08T11:24:28.443Z,57.85
2022-11-08T11:26:57.936Z,58.33
2022-11-08T11:29:28.309Z,57.32
2022-11-08T11:31:55.649Z,57.14
2022-11-08T11:34:29.981Z,57.14
2022-11-08T11:37:17.519Z,57.55
2022-11-08T11:39:55.709Z,56.96
2022-11-08T11:42:49.640Z,56.51
2022-11-08T11:45:40.389Z,56.66
2022-11-08T11:48:17.845Z,55.52
2022-11-08T11:50:47.393Z,55.23
2022-11-08T11:53:26.809Z,55.23
2022-11-08T11:56:28.749Z,55.63
2022-11-08T11:59:24.870Z,55.50
2022-11-08T12:02:25.365Z,54.37
2022-11-08T12:05:06.856Z,53.88
2022-11-08T12:07:42.020Z,54.14
2022-11-08T12:10:45.673Z,52.33
2022-11-08T12:13:21.253Z,52.80
2022-11-08T12:16:06.674Z,52.97
2022-11-08T12:18:45.706Z,51.89
2022-11-08T12:21:15.005Z,51.81
2022-11-08T12:24:19.505Z,51.90
2022-11-08T12:27:08.679Z,50.76
2022-11-08T12:30:08.197Z,51.58
2022-11-08T12:33:02.830Z,51.56
2022-11-08T12:35:53.599Z,51.53
2022-11-08T12:38:29.767Z,51.69
2022-11-08T12:41:14.312Z,51.49
2022-11-08T12:43:56.131Z,51.73
2022-11-08T12:46:22.756Z,51.57
2022-11-08T12:48:57.165Z,51.52
2022-11-08T12:52:02.130Z,51.48
2022-11-08T12:54:42.878Z,51.76
2022-11-08T12:57:14.286Z,52.13
2022-11-08T13:00:01.805Z,51.78
2022-11-08T13:02:32.289Z,51.77
2022-11-08T13:05:23.800Z,51.69
2022-11-08T13:08:05.157Z,51.67
2022-11-08T13:10:43.305Z,51.32
2022-11-08T13:13:37.924Z,51.47
2022-11-08T13:16:22.222Z,51.73
2022-11-08T13:18:50.394Z,51.93
2022-11-08T13:21:25.820Z,52.38
2022-11-08T13:23:53.750Z,52.23
2022-11-08T13:26:25.540Z,51.70
2022-11-08T13:28:53.190Z,50.49
2022-11-08T13:31:22.515Z,50.52
2022-11-08T13:34:03.536Z,50.36
2022-11-08T13:36:53.252Z,49.61
2022-11-08T13:39:26.888Z,49.14
2022-11-08T13:42:15.788Z,48.11
2022-11-08T13:45:08.541Z,49.13
2022-11-08T13:47:36.305Z,49.23
2022-11-08T13:50:27.706Z,49.70
2022-11-08T13:53:18.548Z,49.67
2022-11-08T13:55:58.112Z,49.56
2022-11-08T13:58:42.545Z,48.36
2022-11-08T14:01:18.388Z,48.76
2022-11-08T14:03:47.956Z,48.56
2022-11-08T14:06:32.801Z,48.59
2022-11-08T14:09:33.476Z,47.49
2022-11-08T14:12:14.453Z,47.44
2022-11-08T14:15:10.328Z,48.31
2022-11-08T14:17:47.626Z,48.83
2022-11-08T14:20:27.313Z,48.46
2022-11-08T14:22:54.298Z,48.31
2022-11-08T14:25:37.863Z,48.89
2022-11-08T14:28:04.791Z,49.37
2022-11-08T14:30:33.563Z,49.46
2022-11-08T14:33:24.054Z,49.18
2022-11-08T14:36:04.955Z,50.09
2022-11-08T14:38:35.576Z,50.20
2022-11-08T14:41:05.544Z,50.42
2022-11-08T14:43:42.567Z,50.68
2022-11-08T14:46:25.013Z,51.37
2022-11-08T14:48:54.359Z,51.86
2022-11-08T14:51:21.204Z,51.86
2022-11-08T14:53:54.524Z,52.28
2022-11-08T14:56:23.888Z,52.92
2022-11-08T14:58:52.370Z,52.85
2022-11-08T15:01:22.381Z,52.50
2022-11-08T15:03:57.930Z,53.11
2022-11-08T15:06:39.374Z,54.10
2022-11-08T15:09:08.274Z,53.92
2022-11-08T15:11:38.840Z,54.15
2022-11-08T15:14:08.346Z,53.65
2022-11-08T15:16:44.630Z,54.02
2022-11-08T15:19:28.494Z,54.75
2022-11-08T15:21:55.694Z,54.36
2022-11-08T15:24:40.860Z,53.95
2022-11-08T15:27:14.979Z,53.99
2022-11-08T15:29:48.747Z,53.10
2022-11-08T15:32:20.752Z,53.80
2022-11-08T15:34:48.363Z,54.60
2022-11-08T15:37:34.562Z,54.37
2022-11-08T15:40:07.440Z,54.56
2022-11-08T15:42:36.193Z,54.58
2022-11-08T15:45:14.187Z,54.63
2022-11-08T15:47:46.275Z,55.42
2022-11-08T15:50:15.577Z,54.96
2022-11-08T15:52:42.698Z,55.21
2022-11-08T15:55:13.964Z,54.55
2022-11-08T15:57:42.828Z,54.81
2022-11-08T16:00:28.436Z,54.38
2022-11-08T16:02:55.844Z,55.35
2022-11-08T16:05:25.865Z,55.20
2022-11-08T16:07:53.905Z,55.81
2022-11-08T16:10:45.670Z,56.50
2022-11-08T16:13:33.166Z,56.02
2022-11-08T16:16:00.675Z,56.38
2022-11-08T16:18:27.549Z,56.14
2022-11-08T16:20:54.077Z,56.80
2022-11-08T16:23:20.697Z,56.19
2022-11-08T16:25:50.509Z,56.84
2022-11-08T16:28:29.996Z,57.24
2022-11-08T16:30:57.260Z,56.88
2022-11-08T16:33:30.471Z,56.81
2022-11-08T16:35:59.857Z,57.21
2022-11-08T16:38:36.230Z,57.62
2022-11-08T16:41:04.626Z,57.79
2022-11-08T16:43:31.874Z,57.47
2022-11-08T16:46:06.398Z,57.57
2022-11-08T16:48:35.970Z,57.77
2022-11-08T16:51:05.132Z,56.99
2022-11-08T16:53:32.392Z,56.98
2022-11-08T16:55:59.535Z,57.35
2022-11-08T16:58:28.064Z,57.75
2022-11-08T17:00:55.750Z,57.36
2022-11-08T17:03:24.715Z,57.49
2022-11-08T17:05:52.149Z,57.77
2022-11-08T17:08:19.099Z,57.16
2022-11-08T17:10:45.859Z,57.32
2022-11-08T17:13:18.099Z,57.45
2022-11-08T17:15:45.303Z,57.55
2022-11-08T17:18:13.993Z,57.97
2022-11-08T17:20:40.981Z,58.02
2022-11-08T17:23:09.045Z,58.58
2022-11-08T17:25:37.349Z,57.87
2022-11-08T17:28:04.368Z,57.80
2022-11-08T17:30:30.986Z,58.26
2022-11-08T17:32:57.792Z,58.06
2022-11-08T17:35:24.662Z,59.10
2022-11-08T17:37:51.250Z,58.71
2022-11-08T17:40:17.869Z,58.73
2022-11-08T17:42:45.366Z,58.73
2022-11-08T17:45:12.346Z,59.37
2022-11-08T17:47:39.166Z,58.85
2022-11-08T17:50:06.778Z,58.50
2022-11-08T17:52:33.536Z,58.33
2022-11-08T17:55:00.048Z,58.96
2022-11-08T17:57:26.628Z,58.19
2022-11-08T17:59:53.245Z,58.86
2022-11-08T18:02:20.055Z,58.98
2022-11-08T18:04:46.647Z,58.90
2022-11-08T18:07:13.286Z,59.44
2022-11-08T18:09:39.924Z,59.81
2022-11-08T18:12:06.669Z,59.18
2022-11-08T18:14:33.362Z,59.97
2022-11-08T18:17:00.035Z,59.52
2022-11-08T18:19:26.790Z,59.74
2022-11-08T18:21:53.375Z,60.21
2022-11-08T18:24:20.209Z,59.79
2022-11-08T18:26:46.785Z,60.49
2022-11-08T18:29:13.434Z,60.87
2022-11-08T18:31:39.949Z,61.70
2022-11-08T18:34:06.816Z,61.66
2022-11-08T18:36:33.480Z,61.93
2022-11-08T18:39:00.894Z,62.02
2022-11-08T18:41:29.955Z,61.54
2022-11-08T18:43:58.634Z,61.59
2022-11-08T18:46:26.821Z,62.03
2022-11-08T18:48:54.310Z,61.55
2022-11-08T18:51:22.567Z,61.55
2022-11-08T18:53:49.399Z,61.74
2022-11-08T18:56:16.315Z,61.50
2022-11-08T18:58:43.537Z,61.32
2022-11-08T19:01:10.135Z,61.84
2022-11-08T19:03:37.199Z,61.50
2022-11-08T19:06:03.993Z,62.06
2022-11-08T19:08:32.567Z,62.29
2022-11-08T19:11:10.560Z,62.20
2022-11-08T19:13:38.924Z,62.08
2022-11-08T19:16:13.161Z,61.89
2022-11-08T19:18:40.754Z,62.06
2022-11-08T19:21:12.530Z,62.59
2022-11-08T19:23:39.368Z,63.20
2022-11-08T19:26:08.909Z,63.57
2022-11-08T19:28:37.907Z,64.23
2022-11-08T19:31:05.280Z,64.41
2022-11-08T19:33:32.865Z,65.72
2022-11-08T19:36:05.325Z,66.45
2022-11-08T19:38:36.201Z,67.03
2022-11-08T19:41:05.257Z,68.38
2022-11-08T19:43:35.262Z,69.43
2022-11-08T19:46:03.532Z,70.42
2022-11-08T19:48:32.068Z,71.81
2022-11-08T19:51:01.923Z,72.32
2022-11-08T19:53:28.951Z,73.74
2022-11-08T19:56:00.370Z,73.90
2022-11-08T19:58:27.108Z,74.66
2022-11-08T20:00:53.832Z,75.01
2022-11-08T20:03:20.458Z,75.27
2022-11-08T20:05:53.682Z,75.27
2022-11-08T20:08:21.195Z,75.31
2022-11-08T20:10:49.828Z,75.88
2022-11-08T20:13:16.331Z,76.34
2022-11-08T20:15:42.887Z,76.13
2022-11-08T20:18:10.408Z,76.73
2022-11-08T20:20:41.131Z,76.99
2022-11-08T20:23:08.706Z,77.10
2022-11-08T20:25:35.714Z,77.24
2022-11-08T20:28:02.476Z,77.79
2022-11-08T20:30:29.090Z,77.37
2022-11-08T20:32:55.649Z,77.32
2022-11-08T20:35:23.494Z,77.53
2022-11-08T20:37:50.236Z,78.17
2022-11-08T20:40:17.315Z,77.92
2022-11-08T20:42:43.908Z,77.65
2022-11-08T20:45:14.685Z,78.29
2022-11-08T20:47:41.801Z,78.35
2022-11-08T20:50:09.858Z,78.28
2022-11-08T20:52:36.458Z,78.10
2022-11-08T20:55:03.135Z,78.55
2022-11-08T20:57:29.628Z,79.11
2022-11-08T20:59:56.204Z,78.66
2022-11-08T21:02:22.824Z,79.14
2022-11-08T21:04:49.367Z,79.11
2022-11-08T21:10:27.487Z,79.09
2022-11-08T21:12:48.928Z,79.08
2022-11-08T21:15:15.547Z,79.22
2022-11-08T21:17:42.060Z,79.14
2022-11-08T21:20:09.077Z,79.29
2022-11-08T21:22:35.730Z,79.32
2022-11-08T21:25:02.224Z,79.29
2022-11-08T21:27:30.065Z,79.02
2022-11-08T21:29:56.717Z,79.58
2022-11-08T21:32:23.220Z,79.44
2022-11-08T21:34:49.736Z,79.49
2022-11-08T21:37:16.453Z,79.44
2022-11-08T21:39:43.067Z,79.96
2022-11-08T21:42:09.660Z,79.88
2022-11-08T21:44:36.217Z,79.34
2022-11-08T21:47:02.751Z,80.05
2022-11-08T21:49:29.248Z,79.41
2022-11-08T21:51:55.804Z,79.84
2022-11-08T21:54:22.635Z,80.00
2022-11-08T21:56:49.223Z,80.25
2022-11-08T21:59:15.781Z,80.59
2022-11-08T22:01:42.286Z,81.05
2022-11-08T22:04:08.791Z,80.66
2022-11-08T22:06:36.232Z,80.99
2022-11-08T22:09:02.936Z,80.56
2022-11-08T22:11:29.450Z,80.73
2022-11-08T22:13:56.014Z,81.05
2022-11-08T22:16:22.607Z,81.08
2022-11-08T22:19:06.006Z,81.16
2022-11-08T22:21:40.535Z,80.40
2022-11-08T22:24:20.192Z,80.95
2022-11-08T22:26:47.919Z,80.55
2022-11-08T22:29:16.133Z,79.73
2022-11-08T22:31:43.080Z,79.76
2022-11-08T22:34:10.888Z,79.44
2022-11-08T22:36:44.424Z,79.35
2022-11-08T22:39:13.344Z,79.25
2022-11-08T22:41:39.917Z,79.23
2022-11-08T22:44:11.763Z,79.18
2022-11-08T22:46:39.028Z,78.97
2022-11-08T22:49:05.676Z,78.77
2022-11-08T22:51:32.201Z,78.32
2022-11-08T22:53:58.739Z,78.17
2022-11-08T22:56:25.250Z,78.20
2022-11-08T22:58:51.772Z,78.03
2022-11-08T23:01:18.470Z,77.70
2022-11-08T23:03:46.376Z,77.72
2022-11-08T23:06:13.777Z,77.96
2022-11-08T23:08:40.831Z,77.90
2022-11-08T23:11:26.962Z,78.51
2022-11-08T23:14:12.184Z,78.86
2022-11-08T23:16:45.852Z,78.47
2022-11-08T23:19:32.885Z,78.71
2022-11-08T23:22:18.632Z,79.28
2022-11-08T23:24:45.334Z,79.17
2022-11-08T23:27:32.986Z,79.48
2022-11-08T23:30:18.418Z,80.06
2022-11-08T23:32:48.148Z,80.24
2022-11-08T23:35:15.690Z,80.26
2022-11-08T23:37:42.697Z,80.72
2022-11-08T23:40:29.694Z,80.65
2022-11-08T23:43:43.976Z,80.79
2022-11-08T23:46:12.726Z,81.10
2022-11-08T23:48:40.486Z,81.23
2022-11-08T23:51:07.434Z,81.38
2022-11-08T23:53:36.852Z,81.93
2022-11-08T23:56:04.301Z,81.44
2022-11-08T23:58:31.894Z,81.90
